Time;durP1;ratioP1;P1;durP2;ratioP2;P2;SDS_P1;SDS_P2;PMS_P1;PMS_P2;Temp;Humidity;BMP_temperature;BMP_pressure;BME280_temperature;BME280_humidity;BME280_pressure;Samples;Min_cycle;Max_cycle;Signal;HPM_P1;HPM_P2
2023/08/18 00:02:05;;;;;;;10.10;7.47;;;;;;;;;;4944833;29;20052;-92
2023/08/18 00:04:34;;;;;;;11.63;6.90;;;;;;;;;;4958474;28;20049;-93
2023/08/18 00:07:02;;;;;;;8.65;6.93;;;;;;;;;;4969703;28;20040;-93
2023/08/18 00:09:29;;;;;;;11.55;7.35;;;;;;;;;;4935874;28;20054;-94
2023/08/18 00:11:56;;;;;;;16.48;8.05;;;;;;;;;;4971098;28;20047;-92
2023/08/18 00:14:24;;;;;;;9.63;7.40;;;;;;;;;;4950139;28;20039;-93
2023/08/18 00:16:51;;;;;;;11.73;8.52;;;;;;;;;;4964570;28;20053;-92
2023/08/18 00:19:19;;;;;;;13.10;11.82;;;;;;;;;;4954970;28;20033;-93
2023/08/18 00:21:50;;;;;;;8.70;7.68;;;;;;;;;;4953255;28;20047;-92
2023/08/18 00:24:17;;;;;;;8.90;7.63;;;;;;;;;;4967470;28;20031;-93
2023/08/18 00:26:48;;;;;;;9.02;6.88;;;;;;;;;;4949701;28;20038;-92
2023/08/18 00:29:15;;;;;;;8.38;6.63;;;;;;;;;;4951228;28;20051;-94
2023/08/18 00:31:43;;;;;;;7.75;6.80;;;;;;;;;;4935626;28;20049;-92
2023/08/18 00:34:11;;;;;;;9.40;6.80;;;;;;;;;;4961266;28;20043;-93
2023/08/18 00:36:39;;;;;;;8.38;6.65;;;;;;;;;;4953535;28;20057;-94
2023/08/18 00:39:08;;;;;;;10.27;7.85;;;;;;;;;;4957858;29;20059;-92
2023/08/18 00:41:35;;;;;;;12.48;7.65;;;;;;;;;;4973274;28;20058;-93
2023/08/18 00:44:03;;;;;;;9.70;6.70;;;;;;;;;;4968850;28;20101;-92
2023/08/18 00:46:32;;;;;;;11.38;8.05;;;;;;;;;;4947877;29;20623;-93
2023/08/18 00:49:02;;;;;;;16.92;7.03;;;;;;;;;;4950480;29;20053;-94
2023/08/18 00:51:29;;;;;;;11.85;7.88;;;;;;;;;;4942577;29;20485;-94
2023/08/18 00:53:56;;;;;;;8.95;6.35;;;;;;;;;;4965642;29;20055;-93
2023/08/18 00:56:27;;;;;;;11.25;7.05;;;;;;;;;;4970995;29;20056;-93
2023/08/18 00:58:55;;;;;;;9.05;7.13;;;;;;;;;;4967171;28;20047;-93
2023/08/18 01:01:22;;;;;;;11.38;7.07;;;;;;;;;;4948534;29;20062;-94
2023/08/18 01:03:51;;;;;;;6.40;5.68;;;;;;;;;;4945952;29;20112;-93
2023/08/18 01:06:19;;;;;;;8.85;7.13;;;;;;;;;;4946498;29;20052;-93
2023/08/18 01:08:46;;;;;;;13.82;6.68;;;;;;;;;;4937393;29;20062;-93
2023/08/18 01:11:20;;;;;;;13.00;7.38;;;;;;;;;;4952953;29;20047;-92
2023/08/18 01:13:53;;;;;;;8.75;6.65;;;;;;;;;;4968635;29;20422;-92
2023/08/18 01:16:23;;;;;;;8.30;7.38;;;;;;;;;;4941964;28;20059;-94
2023/08/18 01:18:54;;;;;;;12.93;7.03;;;;;;;;;;4964894;29;20065;-94
2023/08/18 01:21:22;;;;;;;11.38;7.30;;;;;;;;;;4956833;29;20039;-93
2023/08/18 01:23:51;;;;;;;13.63;7.50;;;;;;;;;;4963231;29;20046;-93
2023/08/18 01:26:19;;;;;;;7.53;6.93;;;;;;;;;;4966355;29;20035;-94
2023/08/18 01:28:49;;;;;;;7.68;6.70;;;;;;;;;;4967417;28;20027;-93
2023/08/18 01:31:20;;;;;;;7.43;6.68;;;;;;;;;;4953574;29;20058;-92
2023/08/18 01:33:52;;;;;;;8.20;6.53;;;;;;;;;;4940884;28;20058;-93
2023/08/18 01:36:22;;;;;;;8.05;6.90;;;;;;;;;;4969658;29;20060;-92
2023/08/18 01:38:54;;;;;;;11.93;9.25;;;;;;;;;;4936813;29;20063;-92
2023/08/18 01:41:23;;;;;;;8.77;7.85;;;;;;;;;;4955408;29;20051;-94
2023/08/18 01:43:51;;;;;;;8.45;7.45;;;;;;;;;;4946530;29;20037;-94
2023/08/18 01:46:20;;;;;;;10.70;8.70;;;;;;;;;;4976472;29;20042;-94
2023/08/18 01:48:48;;;;;;;14.02;8.15;;;;;;;;;;4950284;29;20052;-92
2023/08/18 01:51:18;;;;;;;11.88;6.93;;;;;;;;;;4971775;28;20027;-93
2023/08/18 01:53:46;;;;;;;8.57;7.00;;;;;;;;;;4949630;28;20053;-92
2023/08/18 01:56:15;;;;;;;7.63;6.90;;;;;;;;;;4912459;29;20059;-93
2023/08/18 01:58:42;;;;;;;9.05;7.68;;;;;;;;;;4951737;28;20057;-92
2023/08/18 02:01:10;;;;;;;13.05;7.70;;;;;;;;;;4944135;29;20057;-94
2023/08/18 02:03:38;;;;;;;10.18;6.63;;;;;;;;;;4976147;29;20046;-94
2023/08/18 02:06:05;;;;;;;13.05;7.20;;;;;;;;;;4941590;29;20046;-94
2023/08/18 02:08:33;;;;;;;7.88;7.00;;;;;;;;;;4945240;29;20061;-93
2023/08/18 02:11:05;;;;;;;9.18;6.63;;;;;;;;;;4930404;29;20077;-93
2023/08/18 02:13:34;;;;;;;15.85;7.25;;;;;;;;;;4945928;29;20370;-93
2023/08/18 02:16:01;;;;;;;10.38;7.35;;;;;;;;;;4947916;29;20066;-94
2023/08/18 02:18:32;;;;;;;9.55;7.03;;;;;;;;;;4973082;28;20067;-94
2023/08/18 02:21:02;;;;;;;9.68;7.18;;;;;;;;;;4951096;29;20298;-93
2023/08/18 02:23:30;;;;;;;8.30;7.43;;;;;;;;;;4933743;29;20051;-93
2023/08/18 02:26:02;;;;;;;7.28;6.57;;;;;;;;;;4950728;29;20047;-93
2023/08/18 02:28:37;;;;;;;11.85;7.32;;;;;;;;;;4950781;29;20043;-93
2023/08/18 02:31:10;;;;;;;7.57;6.82;;;;;;;;;;4961370;29;20059;-93
2023/08/18 02:33:40;;;;;;;9.88;7.43;;;;;;;;;;4956731;29;20054;-92
2023/08/18 02:36:09;;;;;;;7.20;6.30;;;;;;;;;;4946649;29;20046;-93
2023/08/18 02:38:38;;;;;;;9.82;7.32;;;;;;;;;;4955291;28;20051;-92
2023/08/18 02:41:05;;;;;;;13.40;8.02;;;;;;;;;;4958965;29;20051;-92
2023/08/18 02:43:33;;;;;;;9.63;6.13;;;;;;;;;;4941488;29;20044;-93
2023/08/18 02:46:04;;;;;;;11.20;5.93;;;;;;;;;;4939435;29;20055;-94
2023/08/18 02:48:32;;;;;;;8.90;7.30;;;;;;;;;;4971508;29;20035;-93
2023/08/18 02:51:03;;;;;;;13.45;7.70;;;;;;;;;;4967286;29;20043;-93
2023/08/18 02:53:42;;;;;;;10.95;6.90;;;;;;;;;;4959798;29;20058;-93
2023/08/18 02:56:09;;;;;;;16.70;7.60;;;;;;;;;;4947163;29;20678;-93
2023/08/18 02:58:39;;;;;;;10.50;8.30;;;;;;;;;;4964728;29;20056;-93
2023/08/18 03:01:11;;;;;;;8.07;7.35;;;;;;;;;;4954446;29;20050;-93
2023/08/18 03:03:39;;;;;;;13.48;7.68;;;;;;;;;;4958030;29;20027;-92
2023/08/18 03:06:08;;;;;;;7.97;7.05;;;;;;;;;;4944953;29;20055;-93
2023/08/18 03:08:39;;;;;;;11.05;7.07;;;;;;;;;;4945818;29;20051;-93
2023/08/18 03:11:06;;;;;;;7.95;7.15;;;;;;;;;;4949022;29;20047;-93
2023/08/18 03:13:39;;;;;;;9.10;7.05;;;;;;;;;;4948710;29;20059;-95
2023/08/18 03:16:07;;;;;;;9.82;8.30;;;;;;;;;;4937690;29;20056;-93
2023/08/18 03:18:37;;;;;;;9.15;8.25;;;;;;;;;;4935583;29;20039;-93
2023/08/18 03:21:08;;;;;;;8.80;7.90;;;;;;;;;;4945391;29;20040;-92
2023/08/18 03:23:35;;;;;;;12.55;7.10;;;;;;;;;;4930280;29;20065;-93
2023/08/18 03:26:03;;;;;;;9.88;7.78;;;;;;;;;;4968549;29;20047;-92
2023/08/18 03:28:37;;;;;;;8.43;7.20;;;;;;;;;;4947214;29;20059;-93
2023/08/18 03:31:08;;;;;;;7.55;6.75;;;;;;;;;;4950247;29;20306;-94
2023/08/18 03:33:36;;;;;;;9.68;7.57;;;;;;;;;;4941924;29;20058;-93
2023/08/18 03:36:11;;;;;;;7.72;6.65;;;;;;;;;;4951104;29;20031;-92
2023/08/18 03:38:38;;;;;;;8.65;7.28;;;;;;;;;;4957299;29;20065;-94
2023/08/18 03:41:08;;;;;;;9.10;6.72;;;;;;;;;;4954676;29;20062;-93
2023/08/18 03:43:35;;;;;;;10.00;6.82;;;;;;;;;;4941861;28;20039;-92
2023/08/18 03:46:05;;;;;;;8.23;6.95;;;;;;;;;;4950217;28;20052;-92
2023/08/18 03:48:35;;;;;;;12.00;6.35;;;;;;;;;;4940695;29;20050;-92
2023/08/18 03:51:03;;;;;;;11.63;6.95;;;;;;;;;;4957336;28;20035;-92
2023/08/18 03:53:34;;;;;;;8.20;7.20;;;;;;;;;;4973685;28;20027;-91
2023/08/18 03:56:02;;;;;;;13.10;7.38;;;;;;;;;;4954528;28;20047;-92
2023/08/18 03:58:30;;;;;;;11.55;7.43;;;;;;;;;;4937778;29;20054;-92
2023/08/18 04:01:02;;;;;;;8.50;7.30;;;;;;;;;;4944748;29;20047;-92
2023/08/18 04:03:32;;;;;;;9.82;7.07;;;;;;;;;;4950585;29;20054;-93
2023/08/18 04:06:00;;;;;;;7.85;6.82;;;;;;;;;;4946842;29;20032;-93
2023/08/18 04:08:27;;;;;;;8.88;6.53;;;;;;;;;;4929912;29;20059;-92
2023/08/18 04:10:56;;;;;;;8.25;6.15;;;;;;;;;;4952701;29;20049;-92
2023/08/18 04:13:26;;;;;;;8.43;6.85;;;;;;;;;;4940497;29;20243;-92
2023/08/18 04:15:53;;;;;;;9.00;7.50;;;;;;;;;;4958779;29;20529;-93
2023/08/18 04:18:21;;;;;;;12.57;7.13;;;;;;;;;;4949823;29;20059;-94
2023/08/18 04:20:49;;;;;;;9.80;6.95;;;;;;;;;;4948931;29;20054;-93
2023/08/18 04:23:17;;;;;;;7.88;6.65;;;;;;;;;;4941685;28;20081;-93
2023/08/18 04:25:48;;;;;;;9.85;6.60;;;;;;;;;;4938253;29;20055;-93
2023/08/18 04:28:17;;;;;;;6.72;6.07;;;;;;;;;;4936118;29;20065;-93
2023/08/18 04:30:45;;;;;;;10.10;7.88;;;;;;;;;;4940568;29;20039;-93
2023/08/18 04:33:18;;;;;;;12.23;7.55;;;;;;;;;;4939134;29;20059;-92
2023/08/18 04:35:49;;;;;;;9.43;6.85;;;;;;;;;;4944449;28;20048;-93
2023/08/18 04:38:18;;;;;;;8.95;6.22;;;;;;;;;;4936402;29;20058;-93
2023/08/18 04:40:46;;;;;;;8.10;6.75;;;;;;;;;;4952586;29;20058;-94
2023/08/18 04:43:13;;;;;;;11.38;6.90;;;;;;;;;;4942523;29;20064;-94
2023/08/18 04:45:42;;;;;;;7.30;6.28;;;;;;;;;;4927497;29;20070;-93
2023/08/18 04:48:12;;;;;;;8.82;7.15;;;;;;;;;;4920509;29;20055;-91
2023/08/18 04:50:39;;;;;;;10.00;8.40;;;;;;;;;;4951429;29;20051;-92
2023/08/18 04:53:07;;;;;;;9.38;7.45;;;;;;;;;;4942396;28;20510;-93
2023/08/18 04:55:34;;;;;;;11.00;7.45;;;;;;;;;;4934169;29;20043;-93
2023/08/18 04:58:03;;;;;;;7.28;6.53;;;;;;;;;;4934156;29;20055;-91
2023/08/18 05:00:30;;;;;;;8.75;6.97;;;;;;;;;;4926729;28;20058;-92
2023/08/18 05:03:01;;;;;;;8.27;7.47;;;;;;;;;;4926709;29;20066;-93
2023/08/18 05:05:28;;;;;;;7.75;6.63;;;;;;;;;;4947219;29;20059;-90
2023/08/18 05:07:56;;;;;;;11.80;7.25;;;;;;;;;;4944351;29;20290;-92
2023/08/18 05:10:23;;;;;;;8.05;7.18;;;;;;;;;;4922134;29;20047;-92
2023/08/18 05:12:50;;;;;;;8.50;7.15;;;;;;;;;;4918762;29;20048;-92
2023/08/18 05:15:18;;;;;;;12.20;7.50;;;;;;;;;;4935548;29;20051;-93
2023/08/18 05:17:45;;;;;;;8.07;5.68;;;;;;;;;;4947591;29;20537;-93
2023/08/18 05:20:14;;;;;;;7.20;6.57;;;;;;;;;;4929113;29;20051;-92
2023/08/18 05:22:42;;;;;;;7.97;6.47;;;;;;;;;;4920624;29;20070;-92
2023/08/18 05:25:10;;;;;;;6.22;5.50;;;;;;;;;;4927974;29;20046;-92
2023/08/18 05:27:40;;;;;;;8.23;6.50;;;;;;;;;;4938918;29;20043;-92
2023/08/18 05:30:09;;;;;;;9.35;4.80;;;;;;;;;;4932409;29;20518;-93
2023/08/18 05:32:36;;;;;;;8.70;5.70;;;;;;;;;;4949446;29;20500;-92
2023/08/18 05:35:04;;;;;;;6.05;5.35;;;;;;;;;;4950908;29;20039;-93
2023/08/18 05:37:33;;;;;;;8.48;4.80;;;;;;;;;;4933019;28;20051;-93
2023/08/18 05:40:04;;;;;;;5.07;4.57;;;;;;;;;;4932338;28;20054;-92
2023/08/18 05:42:32;;;;;;;5.60;5.07;;;;;;;;;;4962362;28;20059;-92
2023/08/18 05:44:59;;;;;;;5.32;4.82;;;;;;;;;;4925104;29;20062;-92
2023/08/18 05:47:29;;;;;;;5.85;4.45;;;;;;;;;;4959830;28;20051;-93
2023/08/18 05:49:59;;;;;;;6.60;4.47;;;;;;;;;;4958621;28;20047;-92
2023/08/18 05:52:27;;;;;;;4.95;4.07;;;;;;;;;;4925305;28;20790;-92
2023/08/18 05:55:12;;;;;;;8.30;4.32;;;;;;;;;;4950373;29;20055;-93
2023/08/18 05:57:41;;;;;;;9.30;4.18;;;;;;;;;;4925631;28;20059;-93
2023/08/18 06:00:11;;;;;;;3.92;3.63;;;;;;;;;;4939252;29;20052;-94
2023/08/18 06:02:40;;;;;;;6.82;3.97;;;;;;;;;;4963510;28;20047;-92
2023/08/18 06:05:11;;;;;;;6.90;4.65;;;;;;;;;;4967311;28;21002;-93
2023/08/18 06:07:39;;;;;;;4.97;4.30;;;;;;;;;;4965603;28;20051;-93
2023/08/18 06:10:09;;;;;;;6.75;4.43;;;;;;;;;;4959276;29;20066;-94
2023/08/18 06:12:39;;;;;;;4.22;3.70;;;;;;;;;;4939540;29;20051;-94
2023/08/18 06:15:10;;;;;;;5.85;4.18;;;;;;;;;;4948852;28;20058;-94
2023/08/18 06:17:37;;;;;;;6.63;3.75;;;;;;;;;;4969494;28;20060;-93
2023/08/18 06:20:06;;;;;;;4.57;4.03;;;;;;;;;;4953955;28;20059;-92
2023/08/18 06:22:33;;;;;;;4.22;3.83;;;;;;;;;;4968224;28;20061;-92
2023/08/18 06:25:04;;;;;;;6.13;3.33;;;;;;;;;;4966802;28;20028;-93
2023/08/18 06:27:33;;;;;;;4.45;3.33;;;;;;;;;;4964091;28;20047;-93
2023/08/18 06:30:00;;;;;;;4.13;3.22;;;;;;;;;;4946826;29;20053;-93
2023/08/18 06:32:28;;;;;;;6.45;4.82;;;;;;;;;;4970408;28;20062;-93
2023/08/18 06:34:55;;;;;;;4.82;4.15;;;;;;;;;;4947038;29;20087;-93
2023/08/18 06:37:27;;;;;;;5.07;3.70;;;;;;;;;;4957499;28;20045;-92
2023/08/18 06:39:55;;;;;;;8.70;3.85;;;;;;;;;;4974496;28;20047;-94
2023/08/18 06:42:23;;;;;;;3.85;3.55;;;;;;;;;;4970700;28;20035;-93
2023/08/18 06:44:53;;;;;;;6.85;2.95;;;;;;;;;;4964508;28;20051;-93
2023/08/18 06:47:23;;;;;;;7.13;3.50;;;;;;;;;;4973431;28;20039;-92
2023/08/18 06:49:52;;;;;;;3.85;2.88;;;;;;;;;;4938881;28;20031;-93
2023/08/18 06:52:20;;;;;;;4.78;3.45;;;;;;;;;;4977541;28;20031;-92
2023/08/18 06:54:47;;;;;;;3.08;2.78;;;;;;;;;;4973292;28;20041;-92
2023/08/18 06:57:20;;;;;;;4.28;2.97;;;;;;;;;;4973909;28;20035;-92
2023/08/18 06:59:48;;;;;;;6.57;3.28;;;;;;;;;;4966963;28;20035;-92
2023/08/18 07:02:17;;;;;;;8.65;3.80;;;;;;;;;;4972204;28;20027;-92
2023/08/18 07:04:44;;;;;;;3.20;2.90;;;;;;;;;;4941340;29;20073;-93
2023/08/18 07:07:11;;;;;;;5.88;2.88;;;;;;;;;;4971543;28;20039;-94
2023/08/18 07:09:39;;;;;;;3.45;3.15;;;;;;;;;;4971513;28;20042;-94
2023/08/18 07:12:07;;;;;;;5.93;2.40;;;;;;;;;;4955683;28;20058;-95
2023/08/18 07:14:34;;;;;;;4.25;2.50;;;;;;;;;;4935695;29;20039;-94
2023/08/18 07:17:04;;;;;;;2.55;2.35;;;;;;;;;;4978348;28;20035;-92
2023/08/18 07:19:33;;;;;;;4.70;2.63;;;;;;;;;;4957657;28;20042;-92
2023/08/18 07:22:00;;;;;;;2.50;2.30;;;;;;;;;;4954458;29;20047;-94
2023/08/18 07:24:28;;;;;;;2.83;2.53;;;;;;;;;;4950857;29;20054;-94
2023/08/18 07:26:55;;;;;;;3.92;2.75;;;;;;;;;;4971981;28;20047;-93
2023/08/18 07:29:22;;;;;;;2.72;2.20;;;;;;;;;;4966496;29;20068;-94
2023/08/18 07:31:50;;;;;;;5.22;2.35;;;;;;;;;;4974284;28;20023;-92
2023/08/18 07:34:19;;;;;;;4.05;2.47;;;;;;;;;;4960484;28;20043;-93
2023/08/18 07:36:50;;;;;;;4.18;2.50;;;;;;;;;;4979263;28;20054;-93
2023/08/18 07:39:18;;;;;;;3.60;2.88;;;;;;;;;;4949482;29;20060;-93
2023/08/18 07:41:45;;;;;;;3.60;2.78;;;;;;;;;;4969534;28;20066;-94
2023/08/18 07:44:13;;;;;;;4.43;2.15;;;;;;;;;;4974320;28;20031;-92
2023/08/18 07:46:43;;;;;;;3.20;2.35;;;;;;;;;;4977456;28;20035;-95
2023/08/18 07:49:10;;;;;;;2.90;2.40;;;;;;;;;;4969577;28;20055;-94
2023/08/18 07:51:39;;;;;;;3.10;2.10;;;;;;;;;;4949369;28;20082;-95
2023/08/18 07:54:08;;;;;;;2.88;2.40;;;;;;;;;;4966317;28;20051;-93
2023/08/18 07:56:35;;;;;;;3.75;3.30;;;;;;;;;;4962257;29;20039;-93
2023/08/18 07:59:03;;;;;;;3.92;2.50;;;;;;;;;;4952613;29;20073;-94
2023/08/18 08:01:30;;;;;;;4.13;2.20;;;;;;;;;;4945500;29;20054;-94
2023/08/18 08:03:58;;;;;;;2.67;2.40;;;;;;;;;;4967155;28;20541;-93
2023/08/18 08:06:28;;;;;;;3.90;2.60;;;;;;;;;;4964189;28;20043;-93
2023/08/18 08:08:55;;;;;;;2.78;2.58;;;;;;;;;;4966515;28;20051;-93
2023/08/18 08:11:24;;;;;;;4.00;2.60;;;;;;;;;;4943654;29;20058;-93
2023/08/18 08:13:51;;;;;;;4.20;2.95;;;;;;;;;;4961535;28;20055;-94
2023/08/18 08:16:22;;;;;;;4.50;2.95;;;;;;;;;;4943516;29;20039;-94
2023/08/18 08:18:51;;;;;;;3.42;2.53;;;;;;;;;;4965306;28;20620;-94
2023/08/18 08:21:19;;;;;;;3.70;2.85;;;;;;;;;;4965015;28;20050;-94
2023/08/18 08:23:47;;;;;;;5.35;3.22;;;;;;;;;;4961851;28;20116;-93
2023/08/18 08:26:14;;;;;;;2.78;2.20;;;;;;;;;;4962208;28;20055;-94
2023/08/18 08:28:44;;;;;;;4.18;2.05;;;;;;;;;;4944962;29;20066;-94
2023/08/18 08:31:11;;;;;;;2.97;2.55;;;;;;;;;;4966365;28;20047;-94
2023/08/18 08:33:39;;;;;;;3.58;2.70;;;;;;;;;;4950641;28;20421;-93
2023/08/18 08:36:09;;;;;;;4.45;2.17;;;;;;;;;;4950645;29;20073;-93
2023/08/18 08:38:37;;;;;;;4.93;2.40;;;;;;;;;;4959135;28;20051;-94
2023/08/18 08:41:05;;;;;;;2.15;1.95;;;;;;;;;;4961550;29;20051;-94
2023/08/18 08:43:34;;;;;;;2.47;2.10;;;;;;;;;;4945606;29;20031;-93
2023/08/18 08:46:04;;;;;;;3.28;2.58;;;;;;;;;;4966728;28;20053;-94
2023/08/18 08:48:33;;;;;;;3.58;2.25;;;;;;;;;;4940445;29;20069;-91
2023/08/18 08:51:03;;;;;;;2.97;2.67;;;;;;;;;;4959367;28;20059;-94
2023/08/18 08:53:35;;;;;;;;;;;;;;;;;;4969115;28;20051;-94
2023/08/18 08:56:07;;;;;;;3.75;2.25;;;;;;;;;;4960899;29;19922;-94
2023/08/18 08:58:39;;;;;;;7.38;2.92;;;;;;;;;;4961492;28;20047;-94
2023/08/18 09:01:08;;;;;;;3.15;2.15;;;;;;;;;;4960445;28;20075;-92
2023/08/18 09:03:36;;;;;;;5.05;2.30;;;;;;;;;;4974978;28;20051;-94
2023/08/18 09:06:06;;;;;;;5.55;2.50;;;;;;;;;;4971389;28;20383;-94
2023/08/18 09:08:36;;;;;;;;;;;;;;;;;;4967181;28;20074;-93
2023/08/18 09:11:06;;;;;;;2.45;1.92;;;;;;;;;;4963678;29;19934;-94
2023/08/18 09:13:34;;;;;;;8.63;2.53;;;;;;;;;;4970058;28;20051;-94
2023/08/18 09:16:04;;;;;;;2.75;1.55;;;;;;;;;;4961349;29;20051;-95
2023/08/18 09:18:35;;;;;;;3.60;2.33;;;;;;;;;;4964676;28;20047;-94
2023/08/18 09:21:06;;;;;;;1.90;1.55;;;;;;;;;;4944554;29;20055;-94
2023/08/18 09:23:35;;;;;;;1.83;1.58;;;;;;;;;;4968074;28;20047;-93
2023/08/18 09:26:04;;;;;;;3.47;1.90;;;;;;;;;;4962019;29;20047;-94
2023/08/18 09:28:34;;;;;;;2.73;2.53;;;;;;;;;;4964251;28;20047;-94
2023/08/18 09:31:03;;;;;;;5.60;2.47;;;;;;;;;;4939617;29;20438;-94
2023/08/18 09:33:34;;;;;;;6.78;2.38;;;;;;;;;;4931096;28;20042;-94
2023/08/18 09:36:02;;;;;;;8.00;1.90;;;;;;;;;;4960653;28;20047;-93
2023/08/18 09:38:39;;;;;;;3.40;2.03;;;;;;;;;;4961914;28;20062;-93
2023/08/18 09:41:07;;;;;;;2.17;1.98;;;;;;;;;;4960887;28;20054;-93
2023/08/18 09:43:38;;;;;;;2.50;2.20;;;;;;;;;;4948580;29;20454;-94
2023/08/18 09:46:08;;;;;;;3.10;2.50;;;;;;;;;;4920014;29;20063;-93
2023/08/18 09:48:38;;;;;;;3.15;2.17;;;;;;;;;;4938198;29;20062;-94
2023/08/18 09:51:07;;;;;;;3.75;2.63;;;;;;;;;;4959605;29;20059;-94
2023/08/18 09:53:39;;;;;;;4.00;1.73;;;;;;;;;;4949095;29;20050;-94
2023/08/18 09:56:10;;;;;;;2.10;1.90;;;;;;;;;;4944805;29;20051;-94
2023/08/18 09:59:00;;;;;;;3.80;2.13;;;;;;;;;;4961203;28;20063;-95
2023/08/18 10:01:56;;;;;;;2.47;2.10;;;;;;;;;;4955387;29;20534;-93
2023/08/18 10:04:26;;;;;;;2.38;2.05;;;;;;;;;;4960645;29;20047;-93
2023/08/18 10:07:04;;;;;;;2.47;1.77;;;;;;;;;;4944722;29;20051;-94
2023/08/18 10:09:45;;;;;;;2.28;2.08;;;;;;;;;;4959722;28;20051;-93
2023/08/18 10:12:38;;;;;;;3.78;2.58;;;;;;;;;;4955943;28;20058;-94
2023/08/18 10:15:07;;;;;;;6.85;2.25;;;;;;;;;;4946167;28;20085;-94
2023/08/18 10:17:34;;;;;;;3.00;1.83;;;;;;;;;;4958908;28;20039;-94
2023/08/18 10:20:04;;;;;;;3.00;1.85;;;;;;;;;;4956538;29;20553;-93
2023/08/18 10:22:35;;;;;;;2.22;1.95;;;;;;;;;;4952237;28;20047;-94
2023/08/18 10:25:04;;;;;;;3.58;1.60;;;;;;;;;;4961565;29;20051;-93
2023/08/18 10:27:37;;;;;;;3.80;2.40;;;;;;;;;;4938420;28;20048;-95
2023/08/18 10:30:26;;;;;;;2.55;2.22;;;;;;;;;;4940394;29;20051;-92
2023/08/18 10:32:54;;;;;;;4.45;2.53;;;;;;;;;;4944548;28;20054;-94
2023/08/18 10:35:26;;;;;;;1.88;1.45;;;;;;;;;;4943708;29;20055;-93
2023/08/18 10:38:02;;;;;;;2.35;1.77;;;;;;;;;;4954472;29;20051;-94
2023/08/18 10:40:31;;;;;;;2.83;1.60;;;;;;;;;;4959700;28;20507;-94
2023/08/18 10:43:04;;;;;;;4.15;2.00;;;;;;;;;;4962569;28;20051;-94
2023/08/18 10:45:32;;;;;;;2.80;2.08;;;;;;;;;;4957841;28;20097;-94
2023/08/18 10:48:05;;;;;;;2.58;1.98;;;;;;;;;;4958542;29;20052;-93
2023/08/18 10:50:37;;;;;;;2.15;1.70;;;;;;;;;;4951290;28;20050;-95
2023/08/18 10:53:07;;;;;;;3.40;1.60;;;;;;;;;;4961517;28;20062;-94
2023/08/18 10:55:35;;;;;;;3.08;1.83;;;;;;;;;;4959874;29;20404;-94
2023/08/18 10:58:02;;;;;;;4.10;1.92;;;;;;;;;;4959461;28;20439;-93
2023/08/18 11:00:33;;;;;;;3.20;1.70;;;;;;;;;;4953373;28;20039;-94
2023/08/18 11:03:00;;;;;;;2.42;1.83;;;;;;;;;;4959784;28;20055;-94
2023/08/18 11:05:30;;;;;;;5.18;1.75;;;;;;;;;;4951351;28;20081;-94
2023/08/18 11:08:00;;;;;;;2.33;1.92;;;;;;;;;;4959983;28;20058;-94
2023/08/18 11:10:27;;;;;;;3.70;1.90;;;;;;;;;;4958249;28;20603;-94
2023/08/18 11:12:56;;;;;;;1.70;1.60;;;;;;;;;;4958127;29;20051;-94
2023/08/18 11:15:26;;;;;;;1.60;1.30;;;;;;;;;;4944345;28;20043;-93
2023/08/18 11:17:53;;;;;;;2.75;1.60;;;;;;;;;;4954364;28;20529;-93
2023/08/18 11:20:23;;;;;;;3.03;2.22;;;;;;;;;;4941621;29;20122;-94
2023/08/18 11:22:55;;;;;;;;;;;;;;;;;;4958710;29;20062;-93
2023/08/18 11:25:25;;;;;;;2.58;1.55;;;;;;;;;;4956929;29;19933;-94
2023/08/18 11:27:53;;;;;;;5.00;2.28;;;;;;;;;;4950738;28;20581;-93
2023/08/18 11:30:23;;;;;;;2.75;1.50;;;;;;;;;;4960913;28;20058;-93
2023/08/18 11:32:53;;;;;;;3.13;1.55;;;;;;;;;;4957687;29;20132;-95
2023/08/18 11:35:20;;;;;;;6.13;1.60;;;;;;;;;;4941445;29;20061;-94
2023/08/18 11:37:51;;;;;;;3.80;1.50;;;;;;;;;;4957534;28;20035;-93
2023/08/18 11:40:40;;;;;;;6.30;2.45;;;;;;;;;;4958228;28;20424;-94
2023/08/18 11:43:11;;;;;;;4.13;1.55;;;;;;;;;;4954896;29;20062;-93
2023/08/18 11:45:38;;;;;;;3.20;1.70;;;;;;;;;;4958189;29;20415;-93
2023/08/18 11:48:07;;;;;;;2.45;2.13;;;;;;;;;;4958933;28;20470;-93
2023/08/18 11:50:36;;;;;;;1.45;1.35;;;;;;;;;;4958072;28;20046;-93
2023/08/18 11:53:10;;;;;;;3.00;1.77;;;;;;;;;;4937351;28;20059;-94
2023/08/18 11:55:42;;;;;;;2.60;1.52;;;;;;;;;;4940674;28;20054;-94
2023/08/18 11:58:13;;;;;;;2.70;1.75;;;;;;;;;;4958535;28;20074;-94
2023/08/18 12:00:44;;;;;;;1.92;1.10;;;;;;;;;;4952422;29;20057;-93
2023/08/18 12:03:20;;;;;;;2.47;1.75;;;;;;;;;;4964189;28;20055;-94
2023/08/18 12:05:48;;;;;;;2.47;1.45;;;;;;;;;;4955352;28;20058;-94
2023/08/18 12:08:15;;;;;;;4.00;1.38;;;;;;;;;;4937716;29;20047;-93
2023/08/18 12:10:44;;;;;;;1.70;1.38;;;;;;;;;;4941142;29;20058;-93
2023/08/18 12:13:12;;;;;;;4.10;1.60;;;;;;;;;;4956210;28;20047;-93
2023/08/18 12:15:39;;;;;;;1.63;1.40;;;;;;;;;;4940914;28;20058;-94
2023/08/18 12:18:09;;;;;;;5.78;2.00;;;;;;;;;;4957170;28;20038;-93
2023/08/18 12:20:36;;;;;;;1.75;1.35;;;;;;;;;;4964332;28;20059;-94
2023/08/18 12:23:04;;;;;;;4.95;1.55;;;;;;;;;;4955158;29;20051;-94
2023/08/18 12:25:32;;;;;;;3.15;2.22;;;;;;;;;;4946042;28;20518;-92
2023/08/18 12:28:03;;;;;;;3.00;1.85;;;;;;;;;;4959925;29;20048;-93
2023/08/18 12:30:31;;;;;;;4.00;2.03;;;;;;;;;;4958383;28;20047;-94
2023/08/18 12:32:58;;;;;;;5.50;1.33;;;;;;;;;;4958643;28;20054;-94
2023/08/18 12:35:28;;;;;;;1.75;1.58;;;;;;;;;;4958387;28;20043;-93
2023/08/18 12:37:56;;;;;;;3.00;1.33;;;;;;;;;;4958458;28;20043;-94
2023/08/18 12:40:24;;;;;;;4.47;1.60;;;;;;;;;;4946632;29;20051;-94
2023/08/18 12:42:51;;;;;;;5.03;2.00;;;;;;;;;;4962378;28;20062;-93
2023/08/18 12:45:20;;;;;;;2.67;1.85;;;;;;;;;;4962430;28;20039;-94
2023/08/18 12:47:50;;;;;;;2.55;1.38;;;;;;;;;;4930131;29;20052;-94
2023/08/18 12:50:18;;;;;;;3.47;1.42;;;;;;;;;;4963029;28;20063;-93
2023/08/18 12:52:46;;;;;;;1.80;1.70;;;;;;;;;;4963376;29;20689;-93
2023/08/18 12:55:13;;;;;;;2.05;1.70;;;;;;;;;;4957209;28;20058;-93
2023/08/18 12:57:40;;;;;;;3.10;1.33;;;;;;;;;;4960833;28;20051;-93
2023/08/18 13:00:11;;;;;;;2.53;1.75;;;;;;;;;;4969653;28;20051;-93
2023/08/18 13:02:40;;;;;;;3.03;1.55;;;;;;;;;;4944633;29;20062;-93
2023/08/18 13:05:08;;;;;;;3.05;1.80;;;;;;;;;;4964031;28;20051;-92
2023/08/18 13:07:40;;;;;;;2.22;1.58;;;;;;;;;;4940388;28;20051;-93
2023/08/18 13:10:08;;;;;;;6.53;2.10;;;;;;;;;;4967389;28;20055;-93
2023/08/18 13:12:35;;;;;;;3.83;1.85;;;;;;;;;;4948969;29;20051;-93
2023/08/18 13:15:03;;;;;;;2.95;2.45;;;;;;;;;;4963233;29;20059;-93
2023/08/18 13:17:30;;;;;;;8.57;2.08;;;;;;;;;;4933866;29;20059;-94
2023/08/18 13:19:59;;;;;;;6.85;1.63;;;;;;;;;;4944805;29;20055;-94
2023/08/18 13:22:26;;;;;;;2.08;1.42;;;;;;;;;;4964888;29;20043;-93
2023/08/18 13:24:54;;;;;;;2.65;1.60;;;;;;;;;;4966759;28;20058;-94
2023/08/18 13:27:22;;;;;;;3.10;2.15;;;;;;;;;;4939397;28;20521;-92
2023/08/18 13:29:49;;;;;;;3.65;1.98;;;;;;;;;;4965821;28;20525;-93
2023/08/18 13:32:17;;;;;;;2.15;1.30;;;;;;;;;;4960439;28;20054;-92
2023/08/18 13:34:47;;;;;;;4.93;2.05;;;;;;;;;;4964115;28;20074;-93
2023/08/18 13:37:16;;;;;;;2.20;1.50;;;;;;;;;;4958670;28;20670;-93
2023/08/18 13:39:43;;;;;;;2.42;1.52;;;;;;;;;;4962524;28;20058;-93
2023/08/18 13:42:11;;;;;;;3.08;1.42;;;;;;;;;;4962718;29;20059;-92
2023/08/18 13:44:43;;;;;;;;;;;;;;;;;;4958153;28;20051;-93
2023/08/18 13:47:10;;;;;;;7.20;1.60;;;;;;;;;;4962493;29;19922;-93
2023/08/18 13:49:40;;;;;;;3.08;1.75;;;;;;;;;;4963903;28;20618;-93
2023/08/18 13:52:07;;;;;;;4.38;1.95;;;;;;;;;;4960587;29;20058;-91
2023/08/18 13:54:36;;;;;;;2.80;1.98;;;;;;;;;;4963212;28;20047;-93
2023/08/18 13:57:04;;;;;;;3.05;2.10;;;;;;;;;;4957559;28;20051;-93
2023/08/18 13:59:33;;;;;;;4.95;1.65;;;;;;;;;;4959439;28;20039;-94
2023/08/18 14:02:02;;;;;;;4.82;1.58;;;;;;;;;;4963646;29;20047;-93
2023/08/18 14:04:32;;;;;;;1.88;1.23;;;;;;;;;;4962530;28;20064;-92
2023/08/18 14:06:59;;;;;;;3.05;1.35;;;;;;;;;;4961578;29;20051;-91
2023/08/18 14:09:27;;;;;;;2.88;1.38;;;;;;;;;;4961916;28;20043;-92
2023/08/18 14:11:55;;;;;;;1.83;1.58;;;;;;;;;;4960322;28;20422;-93
2023/08/18 14:14:23;;;;;;;3.42;2.22;;;;;;;;;;4962596;28;20039;-93
2023/08/18 14:16:52;;;;;;;3.03;1.40;;;;;;;;;;4954755;28;20239;-94
2023/08/18 14:19:20;;;;;;;1.58;1.20;;;;;;;;;;4962589;28;20052;-93
2023/08/18 14:21:47;;;;;;;1.38;1.10;;;;;;;;;;4960669;29;20535;-93
2023/08/18 14:24:15;;;;;;;5.55;1.73;;;;;;;;;;4962331;28;20051;-93
2023/08/18 14:26:42;;;;;;;3.00;1.13;;;;;;;;;;4952303;29;20677;-94
2023/08/18 14:29:14;;;;;;;3.05;1.67;;;;;;;;;;4959960;28;20039;-93
2023/08/18 14:31:44;;;;;;;9.07;1.92;;;;;;;;;;4960100;28;20051;-92
2023/08/18 14:34:11;;;;;;;5.13;1.20;;;;;;;;;;4964822;28;20062;-93
2023/08/18 14:36:41;;;;;;;1.85;1.15;;;;;;;;;;4966620;28;20449;-92
2023/08/18 14:39:11;;;;;;;1.83;1.10;;;;;;;;;;4962515;28;20071;-92
2023/08/18 14:41:38;;;;;;;2.70;1.50;;;;;;;;;;4975562;28;20027;-91
2023/08/18 14:44:06;;;;;;;5.07;1.63;;;;;;;;;;4978465;28;20055;-92
2023/08/18 14:46:35;;;;;;;4.05;1.60;;;;;;;;;;4963180;28;20411;-92
2023/08/18 14:49:04;;;;;;;10.68;1.63;;;;;;;;;;4968284;28;20047;-92
2023/08/18 14:51:34;;;;;;;3.33;1.45;;;;;;;;;;4955251;28;20059;-93
2023/08/18 14:54:03;;;;;;;5.00;2.42;;;;;;;;;;4930843;29;20693;-93
2023/08/18 14:56:30;;;;;;;1.42;1.13;;;;;;;;;;4960623;28;20423;-92